sensor_id;sensor_type;location;lat;lon;timestamp;P1;durP1;ratioP1;P2;durP2;ratioP2
64686;SDS011;51113;53.646;-113.674;2023-12-22T00:00:04;2.55;;;1.52;;
64686;SDS011;51113;53.646;-113.674;2023-12-22T00:02:33;2.75;;;1.20;;
64686;SDS011;51113;53.646;-113.674;2023-12-22T00:05:02;3.78;;;1.48;;
64686;SDS011;51113;53.646;-113.674;2023-12-22T00:07:31;3.42;;;1.48;;
64686;SDS011;51113;53.646;-113.674;2023-12-22T00:10:00;2.80;;;1.50;;
64686;SDS011;51113;53.646;-113.674;2023-12-22T00:12:28;3.67;;;1.40;;
64686;SDS011;51113;53.646;-113.674;2023-12-22T00:14:57;3.20;;;1.55;;
64686;SDS011;51113;53.646;-113.674;2023-12-22T00:17:25;8.80;;;1.30;;
64686;SDS011;51113;53.646;-113.674;2023-12-22T00:19:54;1.73;;;1.23;;
64686;SDS011;51113;53.646;-113.674;2023-12-22T00:22:26;2.10;;;1.40;;
64686;SDS011;51113;53.646;-113.674;2023-12-22T00:24:55;2.40;;;1.52;;
64686;SDS011;51113;53.646;-113.674;2023-12-22T00:27:24;2.83;;;1.50;;
64686;SDS011;51113;53.646;-113.674;2023-12-22T00:29:53;3.00;;;1.52;;
64686;SDS011;51113;53.646;-113.674;2023-12-22T00:32:21;2.97;;;1.70;;
64686;SDS011;51113;53.646;-113.674;2023-12-22T00:34:50;1.90;;;1.40;;
64686;SDS011;51113;53.646;-113.674;2023-12-22T00:37:19;1.70;;;1.30;;
64686;SDS011;51113;53.646;-113.674;2023-12-22T00:39:48;3.47;;;1.65;;
64686;SDS011;51113;53.646;-113.674;2023-12-22T00:42:18;1.88;;;1.38;;
64686;SDS011;51113;53.646;-113.674;2023-12-22T00:44:46;3.10;;;1.60;;
64686;SDS011;51113;53.646;-113.674;2023-12-22T00:47:15;1.92;;;1.27;;
64686;SDS011;51113;53.646;-113.674;2023-12-22T00:49:44;1.95;;;1.42;;
64686;SDS011;51113;53.646;-113.674;2023-12-22T00:52:12;2.30;;;1.40;;
64686;SDS011;51113;53.646;-113.674;2023-12-22T00:54:41;1.48;;;1.17;;
64686;SDS011;51113;53.646;-113.674;2023-12-22T00:57:10;1.90;;;1.40;;
64686;SDS011;51113;53.646;-113.674;2023-12-22T00:59:40;3.63;;;1.80;;
64686;SDS011;51113;53.646;-113.674;2023-12-22T01:02:15;1.73;;;1.27;;
64686;SDS011;51113;53.646;-113.674;2023-12-22T01:04:44;2.67;;;1.50;;
64686;SDS011;51113;53.646;-113.674;2023-12-22T01:07:13;2.13;;;1.33;;
64686;SDS011;51113;53.646;-113.674;2023-12-22T01:09:43;5.75;;;1.75;;
64686;SDS011;51113;53.646;-113.674;2023-12-22T01:12:11;2.45;;;1.60;;
64686;SDS011;51113;53.646;-113.674;2023-12-22T01:14:40;1.70;;;1.23;;
64686;SDS011;51113;53.646;-113.674;2023-12-22T01:17:09;3.75;;;1.45;;
64686;SDS011;51113;53.646;-113.674;2023-12-22T01:19:37;2.67;;;1.48;;
64686;SDS011;51113;53.646;-113.674;2023-12-22T01:22:06;2.50;;;1.77;;
64686;SDS011;51113;53.646;-113.674;2023-12-22T01:24:35;3.38;;;1.42;;
64686;SDS011;51113;53.646;-113.674;2023-12-22T01:27:07;1.92;;;1.48;;
64686;SDS011;51113;53.646;-113.674;2023-12-22T01:29:36;2.30;;;1.55;;
64686;SDS011;51113;53.646;-113.674;2023-12-22T01:32:04;1.85;;;1.25;;
64686;SDS011;51113;53.646;-113.674;2023-12-22T01:34:34;2.63;;;1.50;;
64686;SDS011;51113;53.646;-113.674;2023-12-22T01:37:02;2.53;;;1.60;;
64686;SDS011;51113;53.646;-113.674;2023-12-22T01:39:31;2.28;;;1.23;;
64686;SDS011;51113;53.646;-113.674;2023-12-22T01:42:00;2.90;;;1.20;;
64686;SDS011;51113;53.646;-113.674;2023-12-22T01:44:28;2.35;;;1.50;;
64686;SDS011;51113;53.646;-113.674;2023-12-22T01:46:57;2.35;;;1.48;;
64686;SDS011;51113;53.646;-113.674;2023-12-22T01:49:27;3.00;;;1.33;;
64686;SDS011;51113;53.646;-113.674;2023-12-22T01:51:57;1.65;;;1.20;;
64686;SDS011;51113;53.646;-113.674;2023-12-22T01:54:26;2.13;;;1.50;;
64686;SDS011;51113;53.646;-113.674;2023-12-22T01:56:54;2.47;;;1.63;;
64686;SDS011;51113;53.646;-113.674;2023-12-22T01:59:24;4.57;;;2.03;;
64686;SDS011;51113;53.646;-113.674;2023-12-22T02:01:53;2.33;;;1.65;;
64686;SDS011;51113;53.646;-113.674;2023-12-22T02:04:21;3.65;;;1.35;;
64686;SDS011;51113;53.646;-113.674;2023-12-22T02:06:51;2.53;;;1.58;;
64686;SDS011;51113;53.646;-113.674;2023-12-22T02:09:20;2.58;;;1.50;;
64686;SDS011;51113;53.646;-113.674;2023-12-22T02:11:49;2.08;;;1.38;;
64686;SDS011;51113;53.646;-113.674;2023-12-22T02:14:17;1.95;;;1.45;;
64686;SDS011;51113;53.646;-113.674;2023-12-22T02:19:54;3.03;;;1.55;;
64686;SDS011;51113;53.646;-113.674;2023-12-22T02:22:28;3.03;;;1.50;;
64686;SDS011;51113;53.646;-113.674;2023-12-22T02:24:57;2.28;;;1.45;;
64686;SDS011;51113;53.646;-113.674;2023-12-22T02:30:52;2.03;;;1.42;;
64686;SDS011;51113;53.646;-113.674;2023-12-22T02:33:23;2.63;;;1.35;;
64686;SDS011;51113;53.646;-113.674;2023-12-22T02:35:57;3.53;;;1.40;;
64686;SDS011;51113;53.646;-113.674;2023-12-22T02:38:30;3.53;;;1.42;;
64686;SDS011;51113;53.646;-113.674;2023-12-22T02:41:01;3.25;;;1.83;;
64686;SDS011;51113;53.646;-113.674;2023-12-22T02:43:30;3.08;;;1.77;;
64686;SDS011;51113;53.646;-113.674;2023-12-22T02:45:59;3.25;;;1.90;;
64686;SDS011;51113;53.646;-113.674;2023-12-22T02:48:28;2.75;;;1.77;;
64686;SDS011;51113;53.646;-113.674;2023-12-22T02:50:56;3.33;;;1.95;;
64686;SDS011;51113;53.646;-113.674;2023-12-22T02:53:25;2.60;;;1.67;;
64686;SDS011;51113;53.646;-113.674;2023-12-22T02:55:54;3.47;;;1.80;;
64686;SDS011;51113;53.646;-113.674;2023-12-22T02:58:23;3.63;;;1.75;;
64686;SDS011;51113;53.646;-113.674;2023-12-22T03:00:52;2.03;;;1.48;;
64686;SDS011;51113;53.646;-113.674;2023-12-22T03:03:20;2.15;;;1.40;;
64686;SDS011;51113;53.646;-113.674;2023-12-22T03:05:49;2.40;;;1.88;;
64686;SDS011;51113;53.646;-113.674;2023-12-22T03:08:19;4.55;;;1.27;;
64686;SDS011;51113;53.646;-113.674;2023-12-22T03:10:47;2.45;;;1.70;;
64686;SDS011;51113;53.646;-113.674;2023-12-22T03:13:15;1.73;;;1.33;;
64686;SDS011;51113;53.646;-113.674;2023-12-22T03:15:44;2.63;;;1.80;;
64686;SDS011;51113;53.646;-113.674;2023-12-22T03:18:15;6.15;;;1.67;;
64686;SDS011;51113;53.646;-113.674;2023-12-22T03:20:43;3.05;;;1.70;;
64686;SDS011;51113;53.646;-113.674;2023-12-22T03:23:12;3.20;;;1.75;;
64686;SDS011;51113;53.646;-113.674;2023-12-22T03:25:44;2.47;;;1.55;;
64686;SDS011;51113;53.646;-113.674;2023-12-22T03:28:13;3.80;;;1.75;;
64686;SDS011;51113;53.646;-113.674;2023-12-22T03:30:41;2.65;;;1.52;;
64686;SDS011;51113;53.646;-113.674;2023-12-22T03:33:10;3.35;;;1.90;;
64686;SDS011;51113;53.646;-113.674;2023-12-22T03:35:39;2.45;;;1.52;;
64686;SDS011;51113;53.646;-113.674;2023-12-22T03:38:08;3.55;;;1.80;;
64686;SDS011;51113;53.646;-113.674;2023-12-22T03:40:37;3.33;;;1.52;;
64686;SDS011;51113;53.646;-113.674;2023-12-22T03:43:05;4.05;;;2.30;;
64686;SDS011;51113;53.646;-113.674;2023-12-22T03:45:34;4.40;;;2.00;;
64686;SDS011;51113;53.646;-113.674;2023-12-22T03:48:03;2.90;;;1.70;;
64686;SDS011;51113;53.646;-113.674;2023-12-22T03:50:32;2.83;;;1.60;;
64686;SDS011;51113;53.646;-113.674;2023-12-22T03:53:01;3.78;;;1.77;;
64686;SDS011;51113;53.646;-113.674;2023-12-22T03:55:30;3.17;;;1.90;;
64686;SDS011;51113;53.646;-113.674;2023-12-22T03:57:58;2.38;;;1.70;;
64686;SDS011;51113;53.646;-113.674;2023-12-22T04:00:27;3.70;;;1.75;;
64686;SDS011;51113;53.646;-113.674;2023-12-22T04:02:56;2.22;;;1.50;;
64686;SDS011;51113;53.646;-113.674;2023-12-22T04:05:24;6.20;;;1.60;;
64686;SDS011;51113;53.646;-113.674;2023-12-22T04:07:53;2.95;;;1.55;;
64686;SDS011;51113;53.646;-113.674;2023-12-22T04:10:22;2.78;;;1.90;;
64686;SDS011;51113;53.646;-113.674;2023-12-22T04:12:51;3.13;;;2.08;;
64686;SDS011;51113;53.646;-113.674;2023-12-22T04:15:19;6.55;;;1.77;;
64686;SDS011;51113;53.646;-113.674;2023-12-22T04:17:48;3.33;;;1.88;;
64686;SDS011;51113;53.646;-113.674;2023-12-22T04:20:17;3.75;;;2.22;;
64686;SDS011;51113;53.646;-113.674;2023-12-22T04:22:47;3.75;;;2.13;;
64686;SDS011;51113;53.646;-113.674;2023-12-22T04:25:16;2.67;;;1.92;;
64686;SDS011;51113;53.646;-113.674;2023-12-22T04:27:45;4.97;;;1.90;;
64686;SDS011;51113;53.646;-113.674;2023-12-22T04:30:15;3.17;;;2.08;;
64686;SDS011;51113;53.646;-113.674;2023-12-22T04:32:43;7.28;;;2.13;;
64686;SDS011;51113;53.646;-113.674;2023-12-22T04:35:12;5.43;;;2.30;;
64686;SDS011;51113;53.646;-113.674;2023-12-22T04:37:41;4.47;;;2.05;;
64686;SDS011;51113;53.646;-113.674;2023-12-22T04:40:10;4.03;;;2.20;;
64686;SDS011;51113;53.646;-113.674;2023-12-22T04:42:39;4.45;;;1.98;;
64686;SDS011;51113;53.646;-113.674;2023-12-22T04:45:07;3.83;;;2.10;;
64686;SDS011;51113;53.646;-113.674;2023-12-22T04:47:36;3.10;;;2.15;;
64686;SDS011;51113;53.646;-113.674;2023-12-22T04:50:05;3.85;;;2.05;;
64686;SDS011;51113;53.646;-113.674;2023-12-22T04:52:34;4.15;;;2.42;;
64686;SDS011;51113;53.646;-113.674;2023-12-22T04:55:03;5.03;;;2.38;;
64686;SDS011;51113;53.646;-113.674;2023-12-22T04:57:32;3.25;;;2.13;;
64686;SDS011;51113;53.646;-113.674;2023-12-22T05:00:01;3.60;;;1.90;;
64686;SDS011;51113;53.646;-113.674;2023-12-22T05:02:29;3.28;;;2.13;;
64686;SDS011;51113;53.646;-113.674;2023-12-22T05:04:58;4.03;;;2.10;;
64686;SDS011;51113;53.646;-113.674;2023-12-22T05:07:29;3.40;;;2.00;;
64686;SDS011;51113;53.646;-113.674;2023-12-22T05:09:58;2.67;;;1.70;;
64686;SDS011;51113;53.646;-113.674;2023-12-22T05:12:26;4.43;;;1.98;;
64686;SDS011;51113;53.646;-113.674;2023-12-22T05:14:55;3.72;;;2.13;;
64686;SDS011;51113;53.646;-113.674;2023-12-22T05:17:24;3.20;;;2.15;;
64686;SDS011;51113;53.646;-113.674;2023-12-22T05:19:52;3.35;;;1.90;;
64686;SDS011;51113;53.646;-113.674;2023-12-22T05:22:21;3.25;;;2.25;;
64686;SDS011;51113;53.646;-113.674;2023-12-22T05:24:50;4.35;;;2.30;;
64686;SDS011;51113;53.646;-113.674;2023-12-22T05:27:18;5.72;;;2.33;;
64686;SDS011;51113;53.646;-113.674;2023-12-22T05:29:47;5.15;;;2.28;;
64686;SDS011;51113;53.646;-113.674;2023-12-22T05:32:16;3.63;;;2.45;;
64686;SDS011;51113;53.646;-113.674;2023-12-22T05:34:44;8.63;;;2.60;;
64686;SDS011;51113;53.646;-113.674;2023-12-22T05:37:13;4.10;;;2.17;;
64686;SDS011;51113;53.646;-113.674;2023-12-22T05:39:42;4.18;;;2.28;;
64686;SDS011;51113;53.646;-113.674;2023-12-22T05:42:11;3.90;;;2.40;;
64686;SDS011;51113;53.646;-113.674;2023-12-22T05:44:40;6.95;;;2.13;;
64686;SDS011;51113;53.646;-113.674;2023-12-22T05:47:09;6.25;;;2.42;;
64686;SDS011;51113;53.646;-113.674;2023-12-22T05:49:39;5.30;;;2.60;;
64686;SDS011;51113;53.646;-113.674;2023-12-22T05:52:09;8.93;;;2.58;;
64686;SDS011;51113;53.646;-113.674;2023-12-22T05:54:38;3.40;;;2.20;;
64686;SDS011;51113;53.646;-113.674;2023-12-22T05:57:06;3.95;;;2.35;;
64686;SDS011;51113;53.646;-113.674;2023-12-22T05:59:35;4.15;;;2.30;;
64686;SDS011;51113;53.646;-113.674;2023-12-22T06:02:04;3.63;;;2.15;;
64686;SDS011;51113;53.646;-113.674;2023-12-22T06:04:33;4.38;;;2.38;;
64686;SDS011;51113;53.646;-113.674;2023-12-22T06:07:03;3.30;;;2.08;;
64686;SDS011;51113;53.646;-113.674;2023-12-22T06:09:32;3.92;;;2.33;;
64686;SDS011;51113;53.646;-113.674;2023-12-22T06:12:01;3.50;;;2.10;;
64686;SDS011;51113;53.646;-113.674;2023-12-22T06:14:29;6.13;;;2.42;;
64686;SDS011;51113;53.646;-113.674;2023-12-22T06:17:00;4.10;;;2.40;;
64686;SDS011;51113;53.646;-113.674;2023-12-22T06:19:29;7.95;;;2.80;;
64686;SDS011;51113;53.646;-113.674;2023-12-22T06:21:58;5.55;;;2.03;;
64686;SDS011;51113;53.646;-113.674;2023-12-22T06:24:28;6.15;;;2.85;;
64686;SDS011;51113;53.646;-113.674;2023-12-22T06:26:56;5.38;;;2.92;;
64686;SDS011;51113;53.646;-113.674;2023-12-22T06:29:25;3.05;;;2.15;;
64686;SDS011;51113;53.646;-113.674;2023-12-22T06:31:57;5.47;;;2.45;;
64686;SDS011;51113;53.646;-113.674;2023-12-22T06:34:26;3.25;;;2.10;;
64686;SDS011;51113;53.646;-113.674;2023-12-22T06:36:55;3.92;;;2.70;;
64686;SDS011;51113;53.646;-113.674;2023-12-22T06:39:24;3.50;;;2.20;;
64686;SDS011;51113;53.646;-113.674;2023-12-22T06:41:52;3.97;;;2.55;;
64686;SDS011;51113;53.646;-113.674;2023-12-22T06:44:21;4.75;;;2.17;;
64686;SDS011;51113;53.646;-113.674;2023-12-22T06:46:50;3.00;;;2.28;;
64686;SDS011;51113;53.646;-113.674;2023-12-22T06:49:18;3.47;;;2.10;;
64686;SDS011;51113;53.646;-113.674;2023-12-22T06:51:47;3.85;;;2.15;;
64686;SDS011;51113;53.646;-113.674;2023-12-22T06:54:16;3.13;;;2.22;;
64686;SDS011;51113;53.646;-113.674;2023-12-22T06:56:45;5.40;;;2.08;;
64686;SDS011;51113;53.646;-113.674;2023-12-22T06:59:13;3.30;;;2.10;;
64686;SDS011;51113;53.646;-113.674;2023-12-22T07:01:43;15.52;;;2.95;;
64686;SDS011;51113;53.646;-113.674;2023-12-22T07:07:52;3.40;;;2.13;;
64686;SDS011;51113;53.646;-113.674;2023-12-22T07:10:21;5.10;;;2.50;;
64686;SDS011;51113;53.646;-113.674;2023-12-22T07:12:49;8.40;;;2.00;;
64686;SDS011;51113;53.646;-113.674;2023-12-22T07:15:19;2.63;;;1.88;;
64686;SDS011;51113;53.646;-113.674;2023-12-22T07:17:49;2.55;;;1.90;;
64686;SDS011;51113;53.646;-113.674;2023-12-22T07:20:18;10.00;;;2.38;;
64686;SDS011;51113;53.646;-113.674;2023-12-22T07:22:47;3.60;;;2.13;;
64686;SDS011;51113;53.646;-113.674;2023-12-22T07:25:16;3.33;;;2.25;;
64686;SDS011;51113;53.646;-113.674;2023-12-22T07:27:47;6.68;;;2.45;;
64686;SDS011;51113;53.646;-113.674;2023-12-22T07:30:16;4.78;;;2.40;;
64686;SDS011;51113;53.646;-113.674;2023-12-22T07:32:46;3.55;;;2.28;;
64686;SDS011;51113;53.646;-113.674;2023-12-22T07:35:19;8.90;;;2.53;;
64686;SDS011;51113;53.646;-113.674;2023-12-22T07:37:48;4.22;;;2.42;;
64686;SDS011;51113;53.646;-113.674;2023-12-22T07:40:17;4.25;;;2.50;;
64686;SDS011;51113;53.646;-113.674;2023-12-22T07:42:47;3.97;;;2.58;;
64686;SDS011;51113;53.646;-113.674;2023-12-22T07:45:18;5.45;;;2.13;;
64686;SDS011;51113;53.646;-113.674;2023-12-22T07:47:47;4.18;;;2.58;;
64686;SDS011;51113;53.646;-113.674;2023-12-22T07:50:17;4.53;;;2.33;;
64686;SDS011;51113;53.646;-113.674;2023-12-22T07:52:46;4.10;;;2.50;;
64686;SDS011;51113;53.646;-113.674;2023-12-22T07:55:15;2.50;;;1.83;;
64686;SDS011;51113;53.646;-113.674;2023-12-22T07:57:44;5.35;;;2.88;;
64686;SDS011;51113;53.646;-113.674;2023-12-22T08:00:14;5.72;;;3.17;;
64686;SDS011;51113;53.646;-113.674;2023-12-22T08:02:43;5.07;;;2.42;;
64686;SDS011;51113;53.646;-113.674;2023-12-22T08:05:12;4.97;;;2.65;;
64686;SDS011;51113;53.646;-113.674;2023-12-22T08:07:41;4.75;;;2.65;;
64686;SDS011;51113;53.646;-113.674;2023-12-22T08:10:10;4.20;;;2.60;;
64686;SDS011;51113;53.646;-113.674;2023-12-22T08:12:39;4.20;;;2.50;;
64686;SDS011;51113;53.646;-113.674;2023-12-22T08:15:08;4.80;;;2.47;;
64686;SDS011;51113;53.646;-113.674;2023-12-22T08:17:54;3.45;;;1.98;;
64686;SDS011;51113;53.646;-113.674;2023-12-22T08:20:23;6.93;;;2.88;;
64686;SDS011;51113;53.646;-113.674;2023-12-22T08:22:58;4.70;;;2.60;;
64686;SDS011;51113;53.646;-113.674;2023-12-22T08:25:32;3.70;;;2.58;;
64686;SDS011;51113;53.646;-113.674;2023-12-22T08:28:02;3.78;;;2.30;;
64686;SDS011;51113;53.646;-113.674;2023-12-22T08:30:30;5.53;;;3.60;;
64686;SDS011;51113;53.646;-113.674;2023-12-22T08:32:59;5.55;;;3.03;;
64686;SDS011;51113;53.646;-113.674;2023-12-22T08:35:28;4.55;;;2.53;;
64686;SDS011;51113;53.646;-113.674;2023-12-22T08:37:57;11.27;;;3.47;;
64686;SDS011;51113;53.646;-113.674;2023-12-22T08:40:26;4.55;;;2.72;;
64686;SDS011;51113;53.646;-113.674;2023-12-22T08:42:55;6.78;;;3.10;;
64686;SDS011;51113;53.646;-113.674;2023-12-22T08:45:30;8.90;;;2.92;;
64686;SDS011;51113;53.646;-113.674;2023-12-22T08:47:59;8.73;;;3.08;;
64686;SDS011;51113;53.646;-113.674;2023-12-22T08:50:28;6.05;;;2.53;;
64686;SDS011;51113;53.646;-113.674;2023-12-22T08:52:57;3.65;;;2.55;;
64686;SDS011;51113;53.646;-113.674;2023-12-22T08:55:25;6.28;;;2.67;;
64686;SDS011;51113;53.646;-113.674;2023-12-22T08:57:54;4.75;;;2.80;;
64686;SDS011;51113;53.646;-113.674;2023-12-22T09:00:28;6.68;;;3.35;;
64686;SDS011;51113;53.646;-113.674;2023-12-22T09:02:57;5.05;;;2.55;;
64686;SDS011;51113;53.646;-113.674;2023-12-22T09:05:26;5.78;;;3.08;;
64686;SDS011;51113;53.646;-113.674;2023-12-22T09:07:55;7.90;;;2.58;;
64686;SDS011;51113;53.646;-113.674;2023-12-22T09:10:24;5.13;;;2.80;;
64686;SDS011;51113;53.646;-113.674;2023-12-22T09:12:53;5.57;;;2.50;;
64686;SDS011;51113;53.646;-113.674;2023-12-22T09:15:22;8.10;;;3.30;;
64686;SDS011;51113;53.646;-113.674;2023-12-22T09:17:51;9.60;;;3.38;;
64686;SDS011;51113;53.646;-113.674;2023-12-22T09:20:21;4.95;;;2.85;;
64686;SDS011;51113;53.646;-113.674;2023-12-22T09:22:50;4.95;;;2.80;;
64686;SDS011;51113;53.646;-113.674;2023-12-22T09:25:19;4.53;;;2.83;;
64686;SDS011;51113;53.646;-113.674;2023-12-22T09:27:48;4.95;;;2.75;;
64686;SDS011;51113;53.646;-113.674;2023-12-22T09:30:17;4.32;;;2.70;;
64686;SDS011;51113;53.646;-113.674;2023-12-22T09:32:46;5.57;;;3.22;;
64686;SDS011;51113;53.646;-113.674;2023-12-22T09:35:15;6.22;;;3.35;;
64686;SDS011;51113;53.646;-113.674;2023-12-22T09:37:45;4.68;;;2.85;;
64686;SDS011;51113;53.646;-113.674;2023-12-22T09:40:14;6.35;;;3.13;;
64686;SDS011;51113;53.646;-113.674;2023-12-22T09:42:43;3.85;;;2.78;;
64686;SDS011;51113;53.646;-113.674;2023-12-22T09:45:16;4.57;;;2.80;;
64686;SDS011;51113;53.646;-113.674;2023-12-22T09:47:48;3.42;;;2.38;;
64686;SDS011;51113;53.646;-113.674;2023-12-22T09:50:19;7.00;;;2.95;;
64686;SDS011;51113;53.646;-113.674;2023-12-22T09:52:49;5.93;;;3.15;;
64686;SDS011;51113;53.646;-113.674;2023-12-22T09:55:20;5.78;;;2.83;;
64686;SDS011;51113;53.646;-113.674;2023-12-22T09:57:50;5.90;;;2.92;;
64686;SDS011;51113;53.646;-113.674;2023-12-22T10:00:20;4.85;;;2.88;;
64686;SDS011;51113;53.646;-113.674;2023-12-22T10:02:50;4.00;;;2.60;;
64686;SDS011;51113;53.646;-113.674;2023-12-22T10:05:19;8.57;;;3.70;;
64686;SDS011;51113;53.646;-113.674;2023-12-22T10:07:48;5.25;;;3.08;;
64686;SDS011;51113;53.646;-113.674;2023-12-22T10:10:19;6.53;;;3.30;;
64686;SDS011;51113;53.646;-113.674;2023-12-22T10:12:49;7.05;;;3.05;;
64686;SDS011;51113;53.646;-113.674;2023-12-22T10:15:19;4.78;;;2.85;;
64686;SDS011;51113;53.646;-113.674;2023-12-22T10:17:54;4.57;;;2.60;;
64686;SDS011;51113;53.646;-113.674;2023-12-22T10:20:24;6.00;;;2.90;;
64686;SDS011;51113;53.646;-113.674;2023-12-22T10:22:52;6.40;;;2.65;;
64686;SDS011;51113;53.646;-113.674;2023-12-22T10:25:23;7.25;;;3.15;;
64686;SDS011;51113;53.646;-113.674;2023-12-22T10:27:57;4.63;;;3.28;;
64686;SDS011;51113;53.646;-113.674;2023-12-22T10:30:26;12.32;;;3.17;;
64686;SDS011;51113;53.646;-113.674;2023-12-22T10:32:56;8.60;;;3.08;;
64686;SDS011;51113;53.646;-113.674;2023-12-22T10:35:25;5.30;;;2.83;;
64686;SDS011;51113;53.646;-113.674;2023-12-22T10:37:54;4.32;;;2.88;;
64686;SDS011;51113;53.646;-113.674;2023-12-22T10:40:26;7.13;;;3.03;;
64686;SDS011;51113;53.646;-113.674;2023-12-22T10:42:55;6.45;;;3.22;;
64686;SDS011;51113;53.646;-113.674;2023-12-22T10:45:24;4.13;;;2.60;;
64686;SDS011;51113;53.646;-113.674;2023-12-22T10:47:53;5.10;;;3.13;;
64686;SDS011;51113;53.646;-113.674;2023-12-22T10:50:22;7.03;;;2.65;;
64686;SDS011;51113;53.646;-113.674;2023-12-22T10:52:52;4.07;;;2.92;;
64686;SDS011;51113;53.646;-113.674;2023-12-22T10:55:21;6.35;;;2.63;;
64686;SDS011;51113;53.646;-113.674;2023-12-22T10:57:50;5.10;;;2.88;;
64686;SDS011;51113;53.646;-113.674;2023-12-22T11:00:19;5.78;;;2.67;;
64686;SDS011;51113;53.646;-113.674;2023-12-22T11:02:49;2.97;;;2.20;;
64686;SDS011;51113;53.646;-113.674;2023-12-22T11:05:25;5.47;;;3.13;;
64686;SDS011;51113;53.646;-113.674;2023-12-22T11:07:56;6.28;;;3.13;;
64686;SDS011;51113;53.646;-113.674;2023-12-22T11:10:30;5.78;;;2.88;;
64686;SDS011;51113;53.646;-113.674;2023-12-22T11:13:00;5.40;;;3.28;;
64686;SDS011;51113;53.646;-113.674;2023-12-22T11:15:31;4.78;;;2.72;;
64686;SDS011;51113;53.646;-113.674;2023-12-22T11:18:01;4.47;;;2.72;;
64686;SDS011;51113;53.646;-113.674;2023-12-22T11:20:32;6.57;;;3.20;;
64686;SDS011;51113;53.646;-113.674;2023-12-22T11:23:01;4.88;;;3.05;;
64686;SDS011;51113;53.646;-113.674;2023-12-22T11:25:32;3.72;;;2.78;;
64686;SDS011;51113;53.646;-113.674;2023-12-22T11:28:02;4.85;;;3.15;;
64686;SDS011;51113;53.646;-113.674;2023-12-22T11:30:34;4.55;;;2.60;;
64686;SDS011;51113;53.646;-113.674;2023-12-22T11:33:04;5.55;;;3.30;;
64686;SDS011;51113;53.646;-113.674;2023-12-22T11:35:34;6.22;;;3.00;;
64686;SDS011;51113;53.646;-113.674;2023-12-22T11:38:03;4.93;;;2.85;;
64686;SDS011;51113;53.646;-113.674;2023-12-22T11:40:34;5.47;;;3.15;;
64686;SDS011;51113;53.646;-113.674;2023-12-22T11:43:03;4.55;;;2.75;;
64686;SDS011;51113;53.646;-113.674;2023-12-22T11:45:32;4.60;;;3.10;;
64686;SDS011;51113;53.646;-113.674;2023-12-22T11:48:09;4.68;;;2.80;;
64686;SDS011;51113;53.646;-113.674;2023-12-22T11:50:39;8.75;;;3.08;;
64686;SDS011;51113;53.646;-113.674;2023-12-22T11:53:18;3.92;;;2.67;;
64686;SDS011;51113;53.646;-113.674;2023-12-22T11:56:06;9.27;;;2.65;;
64686;SDS011;51113;53.646;-113.674;2023-12-22T11:58:42;4.85;;;2.80;;
64686;SDS011;51113;53.646;-113.674;2023-12-22T12:01:19;5.45;;;3.13;;
64686;SDS011;51113;53.646;-113.674;2023-12-22T12:03:51;5.30;;;2.80;;
64686;SDS011;51113;53.646;-113.674;2023-12-22T12:09:00;4.53;;;2.53;;
64686;SDS011;51113;53.646;-113.674;2023-12-22T12:14:23;7.60;;;3.30;;
64686;SDS011;51113;53.646;-113.674;2023-12-22T12:17:05;5.45;;;2.80;;
64686;SDS011;51113;53.646;-113.674;2023-12-22T12:19:39;4.28;;;2.85;;
64686;SDS011;51113;53.646;-113.674;2023-12-22T12:22:14;8.45;;;3.50;;
64686;SDS011;51113;53.646;-113.674;2023-12-22T12:24:42;5.78;;;3.20;;
64686;SDS011;51113;53.646;-113.674;2023-12-22T12:27:17;6.68;;;3.25;;
64686;SDS011;51113;53.646;-113.674;2023-12-22T12:29:49;7.63;;;3.33;;
64686;SDS011;51113;53.646;-113.674;2023-12-22T12:32:19;6.38;;;3.33;;
64686;SDS011;51113;53.646;-113.674;2023-12-22T12:34:53;4.20;;;2.80;;
64686;SDS011;51113;53.646;-113.674;2023-12-22T12:37:24;8.05;;;3.75;;
64686;SDS011;51113;53.646;-113.674;2023-12-22T12:39:53;6.28;;;3.30;;
64686;SDS011;51113;53.646;-113.674;2023-12-22T12:42:28;4.70;;;2.80;;
64686;SDS011;51113;53.646;-113.674;2023-12-22T12:44:59;5.72;;;2.88;;
64686;SDS011;51113;53.646;-113.674;2023-12-22T12:47:28;4.53;;;2.95;;
64686;SDS011;51113;53.646;-113.674;2023-12-22T12:49:57;4.82;;;3.17;;
64686;SDS011;51113;53.646;-113.674;2023-12-22T12:52:27;5.07;;;2.72;;
64686;SDS011;51113;53.646;-113.674;2023-12-22T12:54:56;4.57;;;2.30;;
64686;SDS011;51113;53.646;-113.674;2023-12-22T12:57:26;3.10;;;2.40;;
64686;SDS011;51113;53.646;-113.674;2023-12-22T12:59:55;4.63;;;2.83;;
64686;SDS011;51113;53.646;-113.674;2023-12-22T13:02:24;5.53;;;2.78;;
64686;SDS011;51113;53.646;-113.674;2023-12-22T13:04:54;4.15;;;2.80;;
64686;SDS011;51113;53.646;-113.674;2023-12-22T13:07:24;7.07;;;3.03;;
64686;SDS011;51113;53.646;-113.674;2023-12-22T13:09:53;4.53;;;2.90;;
64686;SDS011;51113;53.646;-113.674;2023-12-22T13:12:24;5.03;;;2.90;;
64686;SDS011;51113;53.646;-113.674;2023-12-22T13:14:53;4.90;;;3.05;;
64686;SDS011;51113;53.646;-113.674;2023-12-22T13:17:22;5.65;;;3.25;;
64686;SDS011;51113;53.646;-113.674;2023-12-22T13:19:51;7.65;;;3.08;;
64686;SDS011;51113;53.646;-113.674;2023-12-22T13:22:20;5.28;;;3.60;;
64686;SDS011;51113;53.646;-113.674;2023-12-22T13:24:55;5.28;;;2.67;;
64686;SDS011;51113;53.646;-113.674;2023-12-22T13:27:26;5.63;;;2.75;;
64686;SDS011;51113;53.646;-113.674;2023-12-22T13:29:54;3.75;;;2.70;;
64686;SDS011;51113;53.646;-113.674;2023-12-22T13:32:23;5.18;;;3.13;;
64686;SDS011;51113;53.646;-113.674;2023-12-22T13:34:53;3.45;;;2.42;;
64686;SDS011;51113;53.646;-113.674;2023-12-22T13:37:22;4.55;;;3.08;;
64686;SDS011;51113;53.646;-113.674;2023-12-22T13:39:54;6.63;;;2.70;;
64686;SDS011;51113;53.646;-113.674;2023-12-22T13:42:23;5.15;;;2.80;;
64686;SDS011;51113;53.646;-113.674;2023-12-22T13:44:52;5.22;;;3.00;;
64686;SDS011;51113;53.646;-113.674;2023-12-22T13:47:21;4.25;;;2.65;;
64686;SDS011;51113;53.646;-113.674;2023-12-22T13:49:54;3.85;;;2.30;;
64686;SDS011;51113;53.646;-113.674;2023-12-22T13:52:29;4.25;;;2.53;;
64686;SDS011;51113;53.646;-113.674;2023-12-22T13:55:14;4.15;;;2.63;;
64686;SDS011;51113;53.646;-113.674;2023-12-22T13:57:43;3.83;;;2.60;;
64686;SDS011;51113;53.646;-113.674;2023-12-22T14:02:49;3.40;;;2.28;;
64686;SDS011;51113;53.646;-113.674;2023-12-22T14:05:18;3.25;;;2.40;;
64686;SDS011;51113;53.646;-113.674;2023-12-22T14:07:48;6.03;;;3.08;;
64686;SDS011;51113;53.646;-113.674;2023-12-22T14:10:18;4.75;;;2.40;;
64686;SDS011;51113;53.646;-113.674;2023-12-22T14:12:47;3.25;;;2.28;;
64686;SDS011;51113;53.646;-113.674;2023-12-22T14:15:16;10.02;;;2.75;;
64686;SDS011;51113;53.646;-113.674;2023-12-22T14:17:45;4.05;;;2.50;;
64686;SDS011;51113;53.646;-113.674;2023-12-22T14:20:15;4.07;;;2.95;;
64686;SDS011;51113;53.646;-113.674;2023-12-22T14:22:45;5.40;;;2.75;;
64686;SDS011;51113;53.646;-113.674;2023-12-22T14:25:14;4.82;;;2.92;;
64686;SDS011;51113;53.646;-113.674;2023-12-22T14:27:42;7.18;;;2.45;;
64686;SDS011;51113;53.646;-113.674;2023-12-22T14:30:11;9.32;;;2.58;;
64686;SDS011;51113;53.646;-113.674;2023-12-22T14:32:41;6.07;;;2.60;;
64686;SDS011;51113;53.646;-113.674;2023-12-22T14:35:10;4.18;;;2.47;;
64686;SDS011;51113;53.646;-113.674;2023-12-22T14:37:39;10.73;;;2.78;;
64686;SDS011;51113;53.646;-113.674;2023-12-22T14:40:07;5.25;;;3.35;;